createdAt,value
2023-01-17T00:01:37.158Z,0.10
2023-01-17T00:04:22.810Z,0.30
2023-01-17T00:07:08.232Z,0.40
2023-01-17T00:09:53.547Z,0.10
2023-01-17T00:12:21.186Z,0.00
2023-01-17T00:14:48.530Z,0.10
2023-01-17T00:17:15.914Z,0.20
2023-01-17T00:20:01.373Z,0.20
2023-01-17T00:22:48.480Z,0.20
2023-01-17T00:25:38.740Z,0.00
2023-01-17T00:28:05.813Z,0.00
2023-01-17T00:30:32.878Z,0.00
2023-01-17T00:32:59.938Z,0.00
2023-01-17T00:35:27.821Z,0.00
2023-01-17T00:38:07.628Z,0.20
2023-01-17T00:40:35.530Z,0.00
2023-01-17T00:43:21.370Z,0.00
2023-01-17T00:46:06.816Z,-0.20
2023-01-17T00:48:52.175Z,-0.20
2023-01-17T00:51:37.765Z,-0.20
2023-01-17T00:54:23.731Z,-0.20
2023-01-17T00:57:09.519Z,-0.10
2023-01-17T00:59:54.869Z,-0.70
2023-01-17T01:02:40.779Z,-0.30
2023-01-17T01:05:26.262Z,-0.10
2023-01-17T01:08:12.130Z,-0.40
2023-01-17T01:10:57.990Z,-0.30
2023-01-17T01:13:47.209Z,-0.20
2023-01-17T01:16:33.044Z,-0.30
2023-01-17T01:19:18.409Z,-0.30
2023-01-17T01:22:03.711Z,-1.00
2023-01-17T01:24:49.261Z,-0.50
2023-01-17T01:27:34.621Z,-0.40
2023-01-17T01:30:20.138Z,-0.40
2023-01-17T01:33:05.664Z,-0.40
2023-01-17T01:35:32.769Z,-0.20
2023-01-17T01:37:59.697Z,-0.30
2023-01-17T01:40:26.607Z,-0.30
2023-01-17T01:42:58.150Z,-0.30
2023-01-17T01:45:29.846Z,-0.30
2023-01-17T01:48:12.872Z,-0.30
2023-01-17T01:50:39.808Z,-0.30
2023-01-17T01:53:06.743Z,-0.40
2023-01-17T01:55:35.178Z,-0.50
2023-01-17T01:58:10.750Z,-0.30
2023-01-17T02:00:38.652Z,-0.40
2023-01-17T02:03:08.099Z,-0.60
2023-01-17T02:05:35.100Z,-0.50
2023-01-17T02:08:07.764Z,-0.50
2023-01-17T02:10:35.477Z,-0.60
2023-01-17T02:13:02.605Z,-0.50
2023-01-17T02:15:39.929Z,-0.60
2023-01-17T02:18:12.671Z,-0.70
2023-01-17T02:27:28.797Z,-0.50
2023-01-17T02:30:47.401Z,-0.60
2023-01-17T02:33:38.009Z,-0.50
2023-01-17T02:36:15.130Z,-0.70
2023-01-17T02:38:57.576Z,-0.70
2023-01-17T02:41:37.245Z,-0.90
2023-01-17T02:44:04.234Z,-0.90
2023-01-17T02:46:31.191Z,-0.80
2023-01-17T02:48:58.360Z,-0.70
2023-01-17T02:51:46.279Z,-0.80
2023-01-17T02:54:22.130Z,-0.80
2023-01-17T02:57:00.336Z,-0.80
2023-01-17T02:59:34.834Z,-0.80
2023-01-17T03:02:31.221Z,-1.00
2023-01-17T03:04:58.189Z,-0.90
2023-01-17T03:07:26.268Z,-0.80
2023-01-17T03:09:59.208Z,-1.00
2023-01-17T03:12:29.827Z,-0.90
2023-01-17T03:14:56.869Z,-1.50
2023-01-17T03:17:29.448Z,-0.90
2023-01-17T03:19:56.369Z,-1.00
2023-01-17T03:22:23.343Z,-0.90
2023-01-17T03:24:50.549Z,-0.90
2023-01-17T03:27:17.544Z,-0.60
2023-01-17T03:29:44.420Z,-0.80
2023-01-17T03:32:11.294Z,-0.70
2023-01-17T03:34:38.206Z,-0.60
2023-01-17T03:37:05.092Z,-0.60
2023-01-17T03:39:32.119Z,-0.80
2023-01-17T03:41:59.067Z,-0.80
2023-01-17T03:44:25.968Z,-0.70
2023-01-17T03:46:52.865Z,-0.80
2023-01-17T03:49:19.887Z,-0.80
2023-01-17T03:51:46.788Z,-0.80
2023-01-17T03:54:13.760Z,-0.90
2023-01-17T03:56:40.697Z,-0.60
2023-01-17T03:59:07.770Z,-0.80
2023-01-17T04:01:34.784Z,-1.00
2023-01-17T04:04:01.740Z,-1.00
2023-01-17T04:06:28.660Z,-1.10
2023-01-17T04:08:55.590Z,-0.90
2023-01-17T04:11:22.467Z,-1.10
2023-01-17T04:13:49.474Z,-0.70
2023-01-17T04:16:17.475Z,-0.80
2023-01-17T04:18:45.100Z,-0.80
2023-01-17T04:21:12.044Z,-0.90
2023-01-17T04:23:39.036Z,-1.10
2023-01-17T04:26:05.989Z,-1.10
2023-01-17T04:28:33.078Z,-1.00
2023-01-17T04:31:00.355Z,-1.30
2023-01-17T04:33:27.365Z,-1.00
2023-01-17T04:35:54.455Z,-1.10
2023-01-17T04:38:21.914Z,-1.00
2023-01-17T04:40:49.124Z,-1.10
2023-01-17T04:43:17.008Z,-1.30
2023-01-17T04:45:43.937Z,-1.10
2023-01-17T04:48:12.804Z,-1.40
2023-01-17T04:50:39.950Z,-1.30
2023-01-17T04:53:07.180Z,-1.30
2023-01-17T04:55:34.112Z,-1.30
2023-01-17T04:58:01.232Z,-1.30
2023-01-17T05:00:28.243Z,-1.20
2023-01-17T05:02:55.247Z,-1.10
2023-01-17T05:05:22.211Z,-1.30
2023-01-17T05:07:58.413Z,-1.40
2023-01-17T05:10:25.489Z,-1.30
2023-01-17T05:12:59.056Z,-1.50
2023-01-17T05:15:26.409Z,-1.60
2023-01-17T05:17:53.549Z,-1.40
2023-01-17T05:20:21.676Z,-1.60
2023-01-17T05:22:58.137Z,-1.40
2023-01-17T05:25:26.269Z,-1.60
2023-01-17T05:27:53.412Z,-1.20
2023-01-17T05:30:20.595Z,-1.40
2023-01-17T05:32:51.469Z,-1.50
2023-01-17T05:35:22.198Z,-1.70
2023-01-17T05:37:50.470Z,-1.80
2023-01-17T05:40:18.200Z,-1.30
2023-01-17T05:42:52.761Z,-1.60
2023-01-17T05:45:20.409Z,-1.60
2023-01-17T05:47:48.681Z,-1.90
2023-01-17T05:50:20.733Z,-1.90
2023-01-17T05:52:58.336Z,-1.90
2023-01-17T05:55:25.575Z,-1.60
2023-01-17T05:57:53.306Z,-2.00
2023-01-17T06:00:20.727Z,-2.00
2023-01-17T06:02:47.869Z,-1.80
2023-01-17T06:05:15.163Z,-2.00
2023-01-17T06:07:45.769Z,-1.60
2023-01-17T06:10:14.555Z,-1.80
2023-01-17T06:12:45.086Z,-1.80
2023-01-17T06:15:12.630Z,-1.80
2023-01-17T06:17:42.987Z,-2.20
2023-01-17T06:20:11.063Z,-2.20
2023-01-17T06:22:38.023Z,-2.20
2023-01-17T06:25:05.457Z,-2.20
2023-01-17T06:27:32.480Z,-1.90
2023-01-17T06:29:59.480Z,-1.80
2023-01-17T06:32:26.643Z,-2.20
2023-01-17T06:34:53.560Z,-2.40
2023-01-17T06:37:20.465Z,-2.70
2023-01-17T06:39:47.505Z,-2.10
2023-01-17T06:42:14.555Z,-2.20
2023-01-17T06:44:41.573Z,-2.40
2023-01-17T06:47:08.465Z,-2.30
2023-01-17T06:49:35.405Z,-2.30
2023-01-17T06:52:02.357Z,-2.20
2023-01-17T06:54:29.350Z,-2.60
2023-01-17T06:56:56.352Z,-2.30
2023-01-17T06:59:23.302Z,-2.10
2023-01-17T07:01:50.283Z,-2.20
2023-01-17T07:04:17.482Z,-2.00
2023-01-17T07:06:44.641Z,-2.10
2023-01-17T07:09:11.589Z,-2.00
2023-01-17T07:11:38.769Z,-1.90
2023-01-17T07:14:05.827Z,-2.10
2023-01-17T07:16:34.078Z,-2.10
2023-01-17T07:19:01.104Z,-2.10
2023-01-17T07:21:28.097Z,-2.30
2023-01-17T07:23:55.639Z,-2.00
2023-01-17T07:26:22.651Z,-2.10
2023-01-17T07:28:49.708Z,-2.20
2023-01-17T07:31:16.765Z,-2.20
2023-01-17T07:33:43.722Z,-2.20
2023-01-17T07:36:10.999Z,-2.10
2023-01-17T07:38:37.961Z,-2.30
2023-01-17T07:41:05.104Z,-2.20
2023-01-17T07:43:32.037Z,-2.30
2023-01-17T07:46:01.341Z,-2.00
2023-01-17T07:48:29.083Z,-2.20
2023-01-17T07:50:56.858Z,-2.10
2023-01-17T07:53:25.175Z,-2.20
2023-01-17T07:55:52.244Z,-2.30
2023-01-17T07:58:19.369Z,-2.30
2023-01-17T08:00:46.460Z,-2.00
2023-01-17T08:03:15.341Z,-2.20
2023-01-17T08:05:43.016Z,-2.20
2023-01-17T08:08:10.002Z,-2.10
2023-01-17T08:10:37.043Z,-2.00
2023-01-17T08:13:04.047Z,-1.90
2023-01-17T08:15:31.002Z,-2.30
2023-01-17T08:17:58.676Z,-2.00
2023-01-17T08:20:27.804Z,-1.80
2023-01-17T08:22:58.126Z,-2.00
2023-01-17T08:25:25.297Z,-1.80
2023-01-17T08:27:55.010Z,-2.20
2023-01-17T08:30:22.620Z,-2.00
2023-01-17T08:32:49.792Z,-2.10
2023-01-17T08:35:16.757Z,-2.40
2023-01-17T08:37:43.702Z,-1.80
2023-01-17T08:40:11.333Z,-1.60
2023-01-17T08:42:40.381Z,-1.80
2023-01-17T08:45:08.271Z,-1.60
2023-01-17T08:47:35.362Z,-1.60
2023-01-17T08:50:02.557Z,-1.50
2023-01-17T08:52:29.719Z,-1.40
2023-01-17T08:54:56.656Z,-1.40
2023-01-17T08:57:23.604Z,-1.50
2023-01-17T08:59:50.550Z,-1.30
2023-01-17T09:02:18.516Z,-1.30
2023-01-17T09:04:46.664Z,-1.40
2023-01-17T09:07:14.368Z,-1.40
2023-01-17T09:09:41.380Z,-1.10
2023-01-17T09:12:08.541Z,-0.90
2023-01-17T09:14:35.844Z,-1.00
2023-01-17T09:17:02.873Z,-1.10
2023-01-17T09:19:29.918Z,-0.70
2023-01-17T09:21:56.956Z,-0.70
2023-01-17T09:24:23.891Z,-0.90
2023-01-17T09:26:50.854Z,-0.70
2023-01-17T09:29:18.770Z,-0.80
2023-01-17T09:31:48.437Z,-0.70
2023-01-17T09:34:15.560Z,-0.70
2023-01-17T09:36:42.552Z,-0.50
2023-01-17T09:39:10.309Z,-0.30
2023-01-17T09:41:44.966Z,-0.20
2023-01-17T09:44:53.627Z,-0.10
2023-01-17T09:47:32.525Z,-0.30
2023-01-17T09:50:20.399Z,-0.10
2023-01-17T09:52:47.376Z,-0.20
2023-01-17T09:55:15.505Z,0.00
2023-01-17T09:57:45.419Z,0.10
2023-01-17T10:00:36.513Z,0.20
2023-01-17T10:03:15.002Z,0.00
2023-01-17T10:06:03.264Z,0.40
2023-01-17T10:08:55.301Z,0.50
2023-01-17T10:11:53.449Z,0.30
2023-01-17T10:14:40.807Z,0.30
2023-01-17T10:17:30.098Z,0.30
2023-01-17T10:20:34.393Z,0.50
2023-01-17T10:23:35.434Z,0.30
2023-01-17T10:26:08.233Z,0.40
2023-01-17T10:28:51.153Z,0.40
2023-01-17T10:31:26.033Z,0.80
2023-01-17T10:34:18.514Z,0.50
2023-01-17T10:36:47.995Z,0.40
2023-01-17T10:39:24.967Z,0.70
2023-01-17T10:41:59.770Z,0.80
2023-01-17T10:44:39.729Z,0.80
2023-01-17T10:47:24.187Z,0.90
2023-01-17T10:49:56.688Z,1.00
2023-01-17T10:52:43.469Z,1.00
2023-01-17T10:55:28.962Z,1.00
2023-01-17T10:57:55.947Z,1.10
2023-01-17T11:00:34.206Z,1.30
2023-01-17T11:03:01.325Z,1.30
2023-01-17T11:05:30.248Z,1.30
2023-01-17T11:08:04.603Z,1.30
2023-01-17T11:10:40.576Z,1.40
2023-01-17T11:13:22.684Z,1.40
2023-01-17T11:15:51.241Z,1.30
2023-01-17T11:18:19.546Z,1.50
2023-01-17T11:20:46.596Z,1.50
2023-01-17T11:23:32.429Z,1.50
2023-01-17T11:26:02.788Z,1.40
2023-01-17T11:28:34.415Z,1.50
2023-01-17T11:31:04.328Z,1.60
2023-01-17T11:33:46.059Z,1.60
2023-01-17T11:36:27.536Z,1.80
2023-01-17T11:39:05.201Z,1.70
2023-01-17T11:41:39.916Z,2.10
2023-01-17T11:44:28.908Z,1.90
2023-01-17T11:47:14.088Z,2.00
2023-01-17T11:49:42.242Z,1.80
2023-01-17T11:52:18.375Z,1.90
2023-01-17T11:54:46.809Z,2.10
2023-01-17T11:57:43.264Z,1.90
2023-01-17T12:00:46.551Z,2.00
2023-01-17T12:03:16.999Z,2.00
2023-01-17T12:05:48.223Z,1.80
2023-01-17T12:08:37.341Z,2.00
2023-01-17T12:11:10.979Z,2.10
2023-01-17T12:14:09.122Z,2.40
2023-01-17T12:16:45.409Z,2.50
2023-01-17T12:19:39.000Z,2.40
2023-01-17T12:22:09.051Z,2.30
2023-01-17T12:24:58.480Z,2.00
2023-01-17T12:27:34.709Z,2.20
2023-01-17T12:30:20.591Z,2.30
2023-01-17T12:33:24.729Z,2.30
2023-01-17T12:36:08.932Z,2.50
2023-01-17T12:38:37.006Z,2.30
2023-01-17T12:41:19.371Z,2.60
2023-01-17T12:43:46.413Z,2.80
2023-01-17T12:46:33.774Z,2.50
2023-01-17T12:49:15.493Z,2.60
2023-01-17T12:51:43.349Z,2.40
2023-01-17T12:54:19.124Z,2.50
2023-01-17T12:56:57.001Z,2.60
2023-01-17T12:59:32.695Z,2.70
2023-01-17T13:02:01.198Z,2.60
2023-01-17T13:04:46.879Z,2.80
2023-01-17T13:07:42.609Z,2.60
2023-01-17T13:10:24.693Z,2.60
2023-01-17T13:12:53.276Z,2.80
2023-01-17T13:15:23.423Z,2.80
2023-01-17T13:17:53.231Z,2.60
2023-01-17T13:20:22.827Z,2.90
2023-01-17T13:22:50.219Z,3.00
2023-01-17T13:25:44.945Z,2.80
2023-01-17T13:28:21.250Z,2.70
2023-01-17T13:31:11.288Z,2.80
2023-01-17T13:33:53.736Z,3.00
2023-01-17T13:36:25.488Z,2.80
2023-01-17T13:39:01.190Z,2.80
2023-01-17T13:41:34.222Z,2.60
2023-01-17T13:44:19.433Z,2.80
2023-01-17T13:47:10.551Z,2.80
2023-01-17T13:49:49.487Z,2.70
2023-01-17T13:52:19.459Z,2.90
2023-01-17T13:55:01.476Z,2.70
2023-01-17T13:57:30.345Z,2.70
2023-01-17T13:59:58.283Z,2.70
2023-01-17T14:02:37.475Z,2.80
2023-01-17T14:05:29.027Z,3.00
2023-01-17T14:08:00.498Z,2.80
2023-01-17T14:10:34.294Z,3.00
2023-01-17T14:13:01.963Z,2.90
2023-01-17T14:15:29.890Z,2.80
2023-01-17T14:18:04.202Z,3.00
2023-01-17T14:20:39.621Z,2.80
2023-01-17T14:23:56.193Z,2.70
2023-01-17T14:26:34.740Z,2.70
2023-01-17T14:29:40.247Z,3.00
2023-01-17T14:32:12.875Z,2.80
2023-01-17T14:34:39.920Z,2.70
2023-01-17T14:37:30.265Z,2.70
2023-01-17T14:39:57.262Z,2.80
2023-01-17T14:42:25.044Z,2.70
2023-01-17T14:45:08.572Z,2.70
2023-01-17T14:47:38.103Z,2.80
2023-01-17T14:50:28.715Z,2.70
2023-01-17T14:53:10.824Z,2.50
2023-01-17T14:55:38.048Z,2.50
2023-01-17T14:58:04.944Z,2.50
2023-01-17T15:00:35.070Z,2.60
2023-01-17T15:03:02.369Z,2.40
2023-01-17T15:05:30.305Z,2.50
2023-01-17T15:07:58.090Z,2.50
2023-01-17T15:10:32.064Z,2.50
2023-01-17T15:13:05.985Z,2.30
2023-01-17T15:15:39.923Z,2.50
2023-01-17T15:18:19.402Z,2.20
2023-01-17T15:21:00.326Z,2.30
2023-01-17T15:23:31.715Z,2.40
2023-01-17T15:25:58.803Z,2.30
2023-01-17T15:28:25.787Z,2.30
2023-01-17T15:31:09.239Z,2.40
2023-01-17T15:33:41.330Z,2.50
2023-01-17T15:36:09.594Z,2.20
2023-01-17T15:38:39.285Z,2.40
2023-01-17T15:41:16.114Z,2.40
2023-01-17T15:43:43.462Z,2.10
2023-01-17T15:46:21.555Z,2.00
2023-01-17T15:48:49.013Z,2.20
2023-01-17T15:51:17.495Z,2.00
2023-01-17T15:53:44.449Z,2.00
2023-01-17T15:56:34.240Z,1.80
2023-01-17T15:59:27.604Z,2.10
2023-01-17T16:01:56.118Z,1.80
2023-01-17T16:04:27.839Z,1.90
2023-01-17T16:06:54.820Z,1.80
2023-01-17T16:09:22.581Z,1.60
2023-01-17T16:11:49.654Z,1.80
2023-01-17T16:14:17.716Z,1.50
2023-01-17T16:16:52.230Z,1.70
2023-01-17T16:19:19.198Z,1.70
2023-01-17T16:21:48.450Z,1.50
2023-01-17T16:24:15.577Z,1.60
2023-01-17T16:26:42.743Z,1.60
2023-01-17T16:29:10.212Z,1.40
2023-01-17T16:31:37.336Z,1.50
2023-01-17T16:34:09.752Z,1.50
2023-01-17T16:36:36.978Z,1.60
2023-01-17T16:39:03.993Z,1.50
2023-01-17T16:41:30.990Z,1.60
2023-01-17T16:44:00.053Z,1.40
2023-01-17T16:46:27.968Z,1.60
2023-01-17T16:48:55.258Z,1.30
2023-01-17T16:51:22.769Z,1.60
2023-01-17T16:53:49.835Z,1.40
2023-01-17T16:56:17.849Z,1.20
2023-01-17T16:58:44.867Z,1.20
2023-01-17T17:01:16.195Z,1.30
2023-01-17T17:03:43.653Z,1.30
2023-01-17T17:06:10.951Z,1.40
2023-01-17T17:08:38.317Z,1.20
2023-01-17T17:11:17.467Z,1.30
2023-01-17T17:13:45.506Z,1.30
2023-01-17T17:16:23.561Z,1.40
2023-01-17T17:18:55.612Z,0.60
2023-01-17T17:21:22.632Z,1.30
2023-01-17T17:23:56.959Z,1.50
2023-01-17T17:26:26.853Z,1.10
2023-01-17T17:28:54.532Z,1.40
2023-01-17T17:31:21.502Z,1.30
2023-01-17T17:33:48.731Z,1.00
2023-01-17T17:36:15.683Z,1.00
2023-01-17T17:38:51.103Z,1.00
2023-01-17T17:41:29.392Z,1.20
2023-01-17T17:43:56.441Z,1.10
2023-01-17T17:46:24.773Z,1.10
2023-01-17T17:48:51.653Z,1.00
2023-01-17T17:51:25.393Z,1.30
2023-01-17T17:53:53.219Z,1.10
2023-01-17T17:56:20.622Z,1.00
2023-01-17T17:58:48.328Z,1.10
2023-01-17T18:01:15.513Z,1.10
2023-01-17T18:03:42.726Z,0.80
2023-01-17T18:06:10.935Z,0.80
2023-01-17T18:08:38.104Z,0.80
2023-01-17T18:11:07.331Z,0.80
2023-01-17T18:13:34.346Z,1.10
2023-01-17T18:16:07.793Z,0.90
2023-01-17T18:18:39.776Z,0.70
2023-01-17T18:21:13.879Z,0.60
2023-01-17T18:23:42.333Z,0.80
2023-01-17T18:26:17.115Z,0.80
2023-01-17T18:28:44.168Z,0.30
2023-01-17T18:31:11.445Z,0.70
2023-01-17T18:33:39.775Z,0.80
2023-01-17T18:36:07.973Z,0.70
2023-01-17T18:38:42.538Z,0.60
2023-01-17T18:41:10.893Z,0.80
2023-01-17T18:43:37.942Z,0.70
2023-01-17T18:46:05.433Z,0.60
2023-01-17T18:48:32.578Z,0.70
2023-01-17T18:51:06.985Z,0.70
2023-01-17T18:53:34.727Z,0.70
2023-01-17T18:56:02.905Z,0.80
2023-01-17T18:58:31.281Z,0.80
2023-01-17T19:01:10.765Z,0.60
2023-01-17T19:03:38.180Z,0.80
2023-01-17T19:06:05.985Z,0.60
2023-01-17T19:08:33.626Z,0.70
2023-01-17T19:11:00.770Z,0.70
2023-01-17T19:13:27.739Z,0.60
2023-01-17T19:15:54.707Z,0.70
2023-01-17T19:18:21.770Z,0.50
2023-01-17T19:20:48.733Z,0.70
2023-01-17T19:23:15.705Z,0.50
2023-01-17T19:25:42.657Z,0.40
2023-01-17T19:28:09.941Z,0.50
2023-01-17T19:30:40.017Z,0.40
2023-01-17T19:33:06.965Z,0.70
2023-01-17T19:35:33.850Z,0.10
2023-01-17T19:38:00.917Z,0.30
2023-01-17T19:40:27.870Z,0.40
2023-01-17T19:42:55.700Z,0.50
2023-01-17T19:45:22.775Z,0.50
2023-01-17T19:47:49.715Z,0.50
2023-01-17T19:50:18.777Z,0.40
2023-01-17T19:52:45.848Z,0.40
2023-01-17T19:55:12.830Z,0.50
2023-01-17T19:57:40.553Z,0.20
2023-01-17T20:00:09.055Z,0.10
2023-01-17T20:02:39.442Z,0.40
2023-01-17T20:05:06.949Z,0.30
2023-01-17T20:07:34.086Z,0.30
2023-01-17T20:10:01.089Z,0.40
2023-01-17T20:12:28.069Z,0.20
2023-01-17T20:14:55.031Z,0.30
2023-01-17T20:17:21.989Z,0.40
2023-01-17T20:19:49.144Z,0.30
2023-01-17T20:22:16.131Z,0.50
2023-01-17T20:24:43.126Z,0.40
2023-01-17T20:27:10.071Z,0.30
2023-01-17T20:29:40.670Z,0.20
2023-01-17T20:32:08.066Z,0.20
2023-01-17T20:34:35.064Z,0.00
2023-01-17T20:37:02.320Z,0.30
2023-01-17T20:39:29.405Z,0.10
2023-01-17T20:41:56.440Z,0.00
2023-01-17T20:44:24.091Z,0.10
2023-01-17T20:46:51.067Z,0.20
2023-01-17T20:49:19.227Z,0.20
2023-01-17T20:51:46.451Z,0.10
2023-01-17T20:54:15.145Z,0.40
2023-01-17T20:56:42.848Z,0.20
2023-01-17T20:59:12.811Z,0.20
2023-01-17T21:01:40.052Z,0.40
2023-01-17T21:04:10.146Z,0.50
2023-01-17T21:06:38.760Z,0.20
2023-01-17T21:09:07.295Z,0.30
2023-01-17T21:11:34.427Z,0.30
2023-01-17T21:14:01.750Z,0.40
2023-01-17T21:16:29.070Z,0.20
2023-01-17T21:18:56.244Z,0.20
2023-01-17T21:21:26.915Z,-0.10
2023-01-17T21:23:55.093Z,0.00
2023-01-17T21:26:22.471Z,0.20
2023-01-17T21:28:50.889Z,0.40
2023-01-17T21:31:25.945Z,0.10
2023-01-17T21:34:03.942Z,0.10
2023-01-17T21:36:33.265Z,0.10
2023-01-17T21:39:04.252Z,0.20
2023-01-17T21:41:33.679Z,0.20
2023-01-17T21:44:02.232Z,0.20
2023-01-17T21:46:29.393Z,0.10
2023-01-17T21:48:59.244Z,0.20
2023-01-17T21:51:46.292Z,-0.10
2023-01-17T21:54:13.452Z,0.10
2023-01-17T21:56:58.787Z,-0.10
2023-01-17T21:59:25.849Z,0.10
2023-01-17T22:01:52.798Z,0.20
2023-01-17T22:04:20.062Z,0.20
2023-01-17T22:06:46.996Z,0.20
2023-01-17T22:09:15.178Z,0.10
2023-01-17T22:11:42.191Z,0.10
2023-01-17T22:14:09.157Z,0.00
2023-01-17T22:16:36.155Z,0.00
2023-01-17T22:19:03.032Z,0.20
2023-01-17T22:21:30.063Z,0.00
2023-01-17T22:23:58.556Z,0.20
2023-01-17T22:26:30.169Z,0.10
2023-01-17T22:28:59.915Z,0.00
2023-01-17T22:31:27.676Z,0.20
2023-01-17T22:33:55.476Z,-0.10
2023-01-17T22:36:22.693Z,0.00
2023-01-17T22:38:49.867Z,-0.30
2023-01-17T22:41:20.108Z,-0.20
2023-01-17T22:43:51.877Z,0.20
2023-01-17T22:46:23.472Z,0.10
2023-01-17T22:48:50.675Z,0.10
2023-01-17T22:51:18.194Z,0.10
2023-01-17T22:53:50.127Z,0.10
2023-01-17T22:56:18.041Z,-0.10
2023-01-17T22:58:45.191Z,-0.20
2023-01-17T23:01:13.686Z,0.00
2023-01-17T23:03:41.133Z,0.00
2023-01-17T23:06:09.440Z,-0.10
2023-01-17T23:08:37.235Z,0.00
2023-01-17T23:11:33.032Z,0.20
2023-01-17T23:14:00.026Z,0.20
2023-01-17T23:16:45.855Z,0.10
2023-01-17T23:19:24.679Z,-0.10
2023-01-17T23:22:15.076Z,0.00
2023-01-17T23:24:43.352Z,0.00
2023-01-17T23:27:42.080Z,0.00
2023-01-17T23:30:10.831Z,-0.10
2023-01-17T23:32:58.001Z,0.10
2023-01-17T23:35:29.890Z,0.00
2023-01-17T23:38:15.243Z,0.20
2023-01-17T23:40:42.438Z,0.20
2023-01-17T23:43:25.415Z,0.30
2023-01-17T23:45:53.153Z,0.10
2023-01-17T23:48:21.035Z,0.00
2023-01-17T23:50:48.312Z,0.10
2023-01-17T23:53:22.295Z,0.10
2023-01-17T23:55:53.945Z,0.20
2023-01-17T23:58:22.363Z,0.20
